Time;durP1;ratioP1;P1;durP2;ratioP2;P2;SDS_P1;SDS_P2;PMS_P1;PMS_P2;Temp;Humidity;BMP_temperature;BMP_pressure;BME280_temperature;BME280_humidity;BME280_pressure;Samples;Min_cycle;Max_cycle;Signal;HPM_P1;HPM_P2
2021/03/10 00:00:21;;;;;;;6.60;5.05;;;;;;;1.47;47.03;101453.56;696226;28;14918;-59
2021/03/10 00:00:48;;;;;;;8.45;5.88;;;;;;;1.44;47.28;101452.81;694712;28;62079;-60
2021/03/10 00:01:10;;;;;;;7.35;5.43;;;;;;;1.44;47.15;101454.63;696201;28;1277;-60
2021/03/10 00:01:31;;;;;;;8.15;5.72;;;;;;;1.44;47.23;101457.28;695333;28;24452;-58
2021/03/10 00:01:53;;;;;;;8.27;5.78;;;;;;;1.44;47.16;101454.63;696372;28;1346;-58
2021/03/10 00:02:15;;;;;;;8.05;5.78;;;;;;;1.39;47.41;101449.59;697591;28;857;-60
2021/03/10 00:02:36;;;;;;;8.70;6.10;;;;;;;1.40;47.36;101453.97;695152;28;46382;-59
2021/03/10 00:02:57;;;;;;;7.97;5.80;;;;;;;1.38;47.62;101457.69;695771;28;21531;-59
2021/03/10 00:03:18;;;;;;;6.47;5.38;;;;;;;1.37;47.45;101454.16;695964;28;22233;-59
2021/03/10 00:03:39;;;;;;;6.45;5.47;;;;;;;1.38;47.58;101447.03;696419;28;9847;-61
2021/03/10 00:04:00;;;;;;;8.05;5.70;;;;;;;1.38;47.45;101449.69;696809;28;11265;-59
2021/03/10 00:04:21;;;;;;;7.78;5.57;;;;;;;1.38;47.12;101461.22;696063;28;22479;-59
2021/03/10 00:04:42;;;;;;;8.07;6.40;;;;;;;1.37;47.40;101458.66;697385;28;22643;-59
2021/03/10 00:05:05;;;;;;;8.23;5.75;;;;;;;1.32;47.26;101456.28;695579;28;9934;-60
2021/03/10 00:05:26;;;;;;;8.23;5.80;;;;;;;1.35;47.55;101461.41;694403;28;69644;-59
2021/03/10 00:05:48;;;;;;;7.82;5.97;;;;;;;1.35;47.32;101456.09;695989;28;12091;-59
2021/03/10 00:06:09;;;;;;;8.07;5.80;;;;;;;1.36;47.55;101462.25;696330;28;19449;-60
2021/03/10 00:06:30;;;;;;;7.72;5.85;;;;;;;1.37;47.53;101456.00;695855;28;24492;-58
2021/03/10 00:06:51;;;;;;;7.28;6.00;;;;;;;1.37;47.40;101461.31;695677;28;22425;-58
2021/03/10 00:07:12;;;;;;;6.95;5.60;;;;;;;1.36;47.31;101463.09;696142;28;37776;-60
2021/03/10 00:07:34;;;;;;;6.53;5.35;;;;;;;1.37;47.26;101456.84;696071;28;23386;-59
2021/03/10 00:07:55;;;;;;;6.45;5.40;;;;;;;1.34;47.35;101461.50;696040;28;21578;-58
2021/03/10 00:08:16;;;;;;;6.60;5.68;;;;;;;1.35;47.27;101463.19;695550;28;22434;-58
2021/03/10 00:08:37;;;;;;;6.90;6.05;;;;;;;1.35;47.36;101463.19;694575;28;21307;-58
2021/03/10 00:08:58;;;;;;;8.32;6.20;;;;;;;1.34;47.34;101450.88;695460;28;22343;-58
2021/03/10 00:09:20;;;;;;;7.63;5.95;;;;;;;1.35;47.45;101457.88;695553;28;22432;-58
2021/03/10 00:09:41;;;;;;;6.78;5.43;;;;;;;1.34;47.24;101465.00;696567;28;21530;-59
2021/03/10 00:10:03;;;;;;;6.85;5.78;;;;;;;1.31;47.32;101449.25;696857;28;13209;-60
2021/03/10 00:10:25;;;;;;;7.88;5.68;;;;;;;1.33;47.23;101465.97;694241;28;64953;-60
2021/03/10 00:10:46;;;;;;;7.38;5.50;;;;;;;1.32;47.43;101461.59;695779;28;21561;-59
2021/03/10 00:11:07;;;;;;;8.02;5.60;;;;;;;1.33;47.24;101460.63;695785;28;23451;-59
2021/03/10 00:11:28;;;;;;;9.55;5.95;;;;;;;1.27;47.14;101450.41;695056;28;22493;-60
2021/03/10 00:11:49;;;;;;;7.25;5.93;;;;;;;1.34;47.27;101458.84;695494;28;22394;-60
2021/03/10 00:12:11;;;;;;;7.65;5.60;;;;;;;1.33;47.42;101460.63;697148;28;22453;-57
2021/03/10 00:12:32;;;;;;;7.60;5.88;;;;;;;1.35;47.23;101465.84;696009;28;21516;-57
2021/03/10 00:12:53;;;;;;;6.55;5.47;;;;;;;1.34;47.31;101458.84;695282;28;45266;-57
2021/03/10 00:13:14;;;;;;;7.00;5.68;;;;;;;1.32;47.26;101450.97;695706;28;23629;-59
2021/03/10 00:13:36;;;;;;;7.30;5.63;;;;;;;1.32;47.13;101453.63;695851;28;15607;-59
2021/03/10 00:13:57;;;;;;;9.82;6.07;;;;;;;1.32;47.21;101458.09;696294;28;23466;-59
2021/03/10 00:14:19;;;;;;;9.18;5.72;;;;;;;1.33;47.07;101460.63;696357;28;21660;-59
2021/03/10 00:14:40;;;;;;;7.82;5.60;;;;;;;1.32;47.27;101458.94;695242;28;46392;-59
2021/03/10 00:15:01;;;;;;;10.35;6.05;;;;;;;1.31;47.17;101454.56;694887;28;44134;-60
2021/03/10 00:15:23;;;;;;;8.55;5.90;;;;;;;1.31;47.03;101453.72;696000;28;23464;-58
2021/03/10 00:15:44;;;;;;;9.23;5.78;;;;;;;1.32;47.14;101456.28;695305;28;14487;-59
2021/03/10 00:16:06;;;;;;;8.30;5.55;;;;;;;1.32;47.29;101453.63;695329;28;39346;-60
2021/03/10 00:16:27;;;;;;;7.55;5.82;;;;;;;1.32;46.99;101456.28;694688;28;46325;-59
2021/03/10 00:16:48;;;;;;;7.00;5.93;;;;;;;1.34;47.03;101464.16;695724;28;23519;-59
2021/03/10 00:17:10;;;;;;;6.88;5.88;;;;;;;1.28;47.11;101452.09;696481;28;23515;-58
2021/03/10 00:17:31;;;;;;;8.20;5.80;;;;;;;1.30;47.00;101458.19;696440;28;12497;-59
2021/03/10 00:17:52;;;;;;;7.68;5.60;;;;;;;1.33;46.69;101457.97;694660;28;36867;-59
2021/03/10 00:18:13;;;;;;;9.10;5.50;;;;;;;1.33;46.75;101457.97;695015;28;23334;-56
2021/03/10 00:18:34;;;;;;;11.38;5.57;;;;;;;1.32;46.75;101458.94;695382;28;22401;-58
2021/03/10 00:18:56;;;;;;;9.82;6.10;;;;;;;1.34;46.92;101457.03;695707;28;23313;-59
2021/03/10 00:19:17;;;;;;;8.20;5.97;;;;;;;1.31;46.79;101454.56;695073;28;45293;-58
2021/03/10 00:19:38;;;;;;;8.07;5.60;;;;;;;1.33;46.66;101455.31;697024;28;21593;-55
2021/03/10 00:19:59;;;;;;;7.45;5.70;;;;;;;1.34;46.66;101458.84;695896;28;23547;-58
2021/03/10 00:20:21;;;;;;;7.90;5.93;;;;;;;1.34;46.58;101462.34;696149;28;23444;-59
2021/03/10 00:20:42;;;;;;;8.80;5.93;;;;;;;1.34;46.57;101459.69;696195;28;17951;-59
2021/03/10 00:21:04;;;;;;;8.55;5.75;;;;;;;1.35;46.41;101465.84;696077;28;35337;-59
2021/03/10 00:21:25;;;;;;;10.52;6.18;;;;;;;1.31;46.49;101454.56;696280;28;23558;-56
2021/03/10 00:21:46;;;;;;;8.18;5.57;;;;;;;1.35;46.40;101456.09;696229;28;22454;-58
2021/03/10 00:22:07;;;;;;;8.20;5.75;;;;;;;1.34;46.32;101457.03;695761;28;46138;-57
2021/03/10 00:22:28;;;;;;;6.90;5.90;;;;;;;1.35;46.30;101466.72;696082;28;23449;-58
2021/03/10 00:22:49;;;;;;;7.20;5.60;;;;;;;1.34;46.57;101457.03;695731;28;23689;-56
2021/03/10 00:23:11;;;;;;;7.90;5.55;;;;;;;1.36;46.26;101462.25;695834;28;24343;-57
2021/03/10 00:23:32;;;;;;;9.20;6.15;;;;;;;1.35;46.22;101465.84;695962;28;15120;-59
2021/03/10 00:23:53;;;;;;;9.23;6.18;;;;;;;1.35;46.30;101463.19;695420;28;33494;-59
2021/03/10 00:24:14;;;;;;;7.82;5.40;;;;;;;1.35;46.28;101466.72;695964;28;19559;-59
2021/03/10 00:24:35;;;;;;;7.70;5.20;;;;;;;1.34;46.23;101470.34;697295;28;23519;-59
2021/03/10 00:24:56;;;;;;;8.52;5.50;;;;;;;1.35;46.52;101465.84;695199;28;23486;-59
2021/03/10 00:25:18;;;;;;;8.13;5.80;;;;;;;1.35;46.51;101463.19;696762;28;15392;-57
2021/03/10 00:25:39;;;;;;;9.70;5.85;;;;;;;1.34;46.53;101465.00;694537;28;46345;-58
2021/03/10 00:26:00;;;;;;;6.75;5.32;;;;;;;1.32;46.56;101458.09;695828;28;22394;-56
2021/03/10 00:26:21;;;;;;;6.95;5.20;;;;;;;1.34;46.65;101464.16;696213;28;9191;-57
2021/03/10 00:26:44;;;;;;;8.02;5.45;;;;;;;1.32;46.63;101461.59;695869;28;23432;-56
2021/03/10 00:27:07;;;;;;;7.82;5.57;;;;;;;1.32;46.70;101458.09;695935;28;45376;-59
2021/03/10 00:27:28;;;;;;;8.43;5.70;;;;;;;1.32;46.88;101460.75;693178;28;92607;-58
2021/03/10 00:27:49;;;;;;;7.50;5.47;;;;;;;1.30;46.69;101462.66;696170;28;21504;-56
2021/03/10 00:28:10;;;;;;;6.97;5.10;;;;;;;1.29;46.77;101460.97;695887;28;22418;-58
2021/03/10 00:28:31;;;;;;;7.15;5.32;;;;;;;1.30;46.72;101457.31;696268;28;21545;-59
2021/03/10 00:28:52;;;;;;;7.00;5.38;;;;;;;1.28;46.95;101460.09;695662;28;22396;-59
2021/03/10 00:29:13;;;;;;;7.47;5.40;;;;;;;1.26;46.79;101462.84;695676;28;21303;-58
2021/03/10 00:29:36;;;;;;;7.07;5.80;;;;;;;1.26;47.01;101457.53;696954;28;23450;-57
2021/03/10 00:29:59;;;;;;;7.03;5.78;;;;;;;1.27;47.14;101463.72;694632;28;69750;-59
2021/03/10 00:30:21;;;;;;;8.25;5.55;;;;;;;1.25;47.05;101455.84;694272;28;69451;-58
2021/03/10 00:30:42;;;;;;;8.55;5.85;;;;;;;1.24;47.14;101455.94;695282;28;46383;-61
2021/03/10 00:31:03;;;;;;;9.13;5.95;;;;;;;1.23;47.15;101462.19;696154;28;22323;-59
2021/03/10 00:31:24;;;;;;;8.82;5.45;;;;;;;1.22;47.09;101463.13;695585;28;24298;-58
2021/03/10 00:31:45;;;;;;;7.65;5.38;;;;;;;1.21;47.08;101454.31;695636;28;21665;-57
2021/03/10 00:32:07;;;;;;;6.40;5.30;;;;;;;1.20;47.11;101457.06;697828;28;23515;-60
2021/03/10 00:32:28;;;;;;;7.07;5.63;;;;;;;1.22;47.35;101463.13;694388;28;45480;-59
2021/03/10 00:32:49;;;;;;;8.20;5.70;;;;;;;1.21;47.34;101462.28;696033;28;21343;-58
2021/03/10 00:33:10;;;;;;;8.52;5.55;;;;;;;1.20;47.28;101463.25;695921;28;22549;-58
2021/03/10 00:33:32;;;;;;;6.53;5.00;;;;;;;1.21;47.44;101466.78;696721;28;1013;-59
2021/03/10 00:33:53;;;;;;;6.80;5.55;;;;;;;1.21;47.40;101459.63;696452;28;1085;-59
2021/03/10 00:34:14;;;;;;;8.05;5.60;;;;;;;1.22;47.42;101460.47;695865;28;23384;-59
2021/03/10 00:34:35;;;;;;;8.30;5.38;;;;;;;1.21;47.26;101464.13;696621;28;19929;-58
2021/03/10 00:34:57;;;;;;;6.75;5.28;;;;;;;1.20;47.17;101462.41;695270;28;21525;-58
2021/03/10 00:35:18;;;;;;;8.15;5.32;;;;;;;1.21;47.44;101462.28;695428;28;45301;-56
2021/03/10 00:35:39;;;;;;;6.65;5.30;;;;;;;1.20;47.32;101463.25;695823;28;22468;-58
2021/03/10 00:36:00;;;;;;;7.53;5.55;;;;;;;1.22;47.31;101461.34;696762;28;862;-59
2021/03/10 00:36:21;;;;;;;6.50;5.50;;;;;;;1.23;47.21;101464.84;695931;28;22359;-58
2021/03/10 00:36:42;;;;;;;7.45;5.70;;;;;;;1.23;47.32;101462.19;695899;28;23427;-58
2021/03/10 00:37:06;;;;;;;8.10;5.85;;;;;;;1.24;47.24;101469.25;696088;28;44616;-59
2021/03/10 00:37:27;;;;;;;6.78;5.18;;;;;;;1.22;47.01;101458.69;694526;28;70629;-59
2021/03/10 00:37:48;;;;;;;5.45;4.82;;;;;;;1.21;47.06;101462.28;695753;28;21650;-59
2021/03/10 00:38:09;;;;;;;6.35;5.35;;;;;;;1.18;47.06;101475.78;696114;28;22372;-59
2021/03/10 00:38:30;;;;;;;8.18;5.32;;;;;;;1.17;47.16;101465.25;695993;28;21561;-59
2021/03/10 00:38:51;;;;;;;7.63;5.25;;;;;;;1.18;47.13;101469.63;695876;28;23485;-59
2021/03/10 00:39:12;;;;;;;7.70;5.57;;;;;;;1.14;47.08;101468.94;695918;28;22462;-60
2021/03/10 00:39:35;;;;;;;7.57;5.57;;;;;;;1.16;47.38;101476.84;695863;28;22267;-59
2021/03/10 00:39:56;;;;;;;6.55;5.32;;;;;;;1.15;47.06;101472.50;694902;28;46798;-58
2021/03/10 00:40:18;;;;;;;6.10;5.10;;;;;;;1.16;47.22;101463.53;694875;28;47349;-59
2021/03/10 00:40:39;;;;;;;8.48;5.45;;;;;;;1.15;47.50;101462.69;696607;28;1283;-59
2021/03/10 00:41:01;;;;;;;8.65;5.45;;;;;;;1.15;47.16;101469.81;696051;28;21652;-58
2021/03/10 00:41:22;;;;;;;7.45;5.45;;;;;;;1.16;47.32;101471.50;695359;28;15143;-59
2021/03/10 00:41:43;;;;;;;9.30;5.55;;;;;;;1.15;47.17;101459.19;696101;28;22435;-59
2021/03/10 00:42:06;;;;;;;8.07;5.65;;;;;;;1.15;47.34;101470.66;697291;28;20835;-59
2021/03/10 00:42:27;;;;;;;9.20;5.45;;;;;;;1.17;47.20;101462.59;693502;28;90340;-56
2021/03/10 00:42:49;;;;;;;7.43;5.88;;;;;;;1.16;47.34;101460.88;695801;28;22046;-59
2021/03/10 00:43:10;;;;;;;8.27;6.10;;;;;;;1.14;47.24;101466.28;695622;28;21531;-60
2021/03/10 00:43:31;;;;;;;8.93;5.70;;;;;;;1.14;47.21;101457.47;696269;28;10572;-57
2021/03/10 00:43:52;;;;;;;8.13;5.68;;;;;;;1.16;46.96;101463.53;695663;28;20700;-58
2021/03/10 00:44:13;;;;;;;6.32;5.07;;;;;;;1.15;47.10;101470.66;698931;28;21336;-58
2021/03/10 00:44:36;;;;;;;7.97;5.30;;;;;;;1.17;47.22;101459.94;699679;28;13096;-58
2021/03/10 00:44:57;;;;;;;8.82;5.35;;;;;;;1.14;47.26;101473.44;696408;28;67558;-59
2021/03/10 00:45:19;;;;;;;8.43;5.28;;;;;;;1.16;47.16;101471.50;698362;28;29785;-59
2021/03/10 00:45:40;;;;;;;7.93;5.55;;;;;;;1.14;47.21;101471.63;698965;28;8139;-60
2021/03/10 00:46:01;;;;;;;8.40;5.32;;;;;;;1.12;47.37;101468.22;698210;28;37734;-59
2021/03/10 00:46:22;;;;;;;9.95;5.90;;;;;;;1.14;47.09;101462.78;698522;28;24365;-56
2021/03/10 00:46:43;;;;;;;9.00;5.95;;;;;;;1.14;47.20;101460.97;699039;28;13340;-60
2021/03/10 00:47:06;;;;;;;7.78;5.82;;;;;;;1.08;47.39;101454.25;699969;28;7224;-59
2021/03/10 00:47:28;;;;;;;6.50;5.57;;;;;;;1.12;47.38;101468.22;697537;28;52482;-59
2021/03/10 00:47:49;;;;;;;6.55;5.30;;;;;;;1.13;47.32;101461.94;698671;28;23509;-59
2021/03/10 00:48:10;;;;;;;7.38;5.60;;;;;;;1.14;47.15;101460.97;698315;28;21519;-59
2021/03/10 00:48:31;;;;;;;6.22;5.10;;;;;;;1.13;47.33;101459.28;698388;28;46281;-59
2021/03/10 00:48:53;;;;;;;10.32;5.70;;;;;;;1.15;47.22;101469.81;698977;28;22387;-58
2021/03/10 00:49:14;;;;;;;8.95;6.13;;;;;;;1.13;47.12;101461.06;698555;28;23313;-56
2021/03/10 00:49:35;;;;;;;8.07;5.70;;;;;;;1.15;47.10;101461.84;697594;28;23520;-59
2021/03/10 00:49:58;;;;;;;8.52;5.57;;;;;;;1.12;46.96;101465.53;697397;28;44391;-58
2021/03/10 00:50:20;;;;;;;7.80;5.38;;;;;;;1.13;46.96;101458.41;699053;28;46142;-59
2021/03/10 00:50:41;;;;;;;10.05;5.57;;;;;;;1.12;47.05;101457.56;697439;28;44271;-57
2021/03/10 00:51:02;;;;;;;7.78;5.68;;;;;;;1.12;47.17;101460.22;698275;28;23483;-59
2021/03/10 00:51:23;;;;;;;8.25;6.00;;;;;;;1.12;47.02;101465.53;697816;28;21488;-60
2021/03/10 00:51:44;;;;;;;8.40;6.03;;;;;;;1.11;47.23;101465.63;698049;28;22103;-59
2021/03/10 00:52:06;;;;;;;7.13;5.32;;;;;;;1.12;47.10;101462.03;698276;28;23068;-60
2021/03/10 00:52:27;;;;;;;7.35;5.35;;;;;;;1.12;47.10;101460.22;697650;28;46289;-60
2021/03/10 00:52:48;;;;;;;7.60;5.80;;;;;;;1.10;47.08;101453.28;698911;28;23024;-59
2021/03/10 00:53:09;;;;;;;6.88;5.70;;;;;;;1.10;47.15;101454.16;699695;28;926;-58
2021/03/10 00:53:31;;;;;;;6.85;5.70;;;;;;;1.10;46.94;101464.81;698831;28;17757;-59
2021/03/10 00:53:52;;;;;;;7.15;5.47;;;;;;;1.10;46.95;101469.25;698870;28;19105;-56
2021/03/10 00:54:13;;;;;;;8.83;5.83;;;;;;;1.09;47.05;101463.06;698761;28;23599;-57
2021/03/10 00:54:34;;;;;;;9.70;5.40;;;;;;;1.08;46.93;101464.03;697275;28;45326;-57
2021/03/10 00:54:55;;;;;;;7.63;5.47;;;;;;;1.08;46.99;101464.91;698732;28;22271;-58
2021/03/10 00:55:18;;;;;;;7.85;5.70;;;;;;;1.05;47.12;101462.44;698890;28;22225;-58
2021/03/10 00:55:39;;;;;;;7.80;5.50;;;;;;;1.07;47.10;101471.16;694245;28;69307;-59
2021/03/10 00:56:01;;;;;;;7.93;5.30;;;;;;;1.06;46.91;101464.13;697757;28;921;-60
2021/03/10 00:56:23;;;;;;;7.43;5.40;;;;;;;1.05;46.96;101465.09;697387;28;1500;-56
2021/03/10 00:56:44;;;;;;;8.60;5.60;;;;;;;1.06;46.95;101466.78;696865;28;9898;-57
2021/03/10 00:57:06;;;;;;;6.55;5.85;;;;;;;1.05;47.13;101465.09;697039;28;23508;-58
2021/03/10 00:57:27;;;;;;;7.78;5.82;;;;;;;1.03;47.22;101466.13;697153;28;983;-58
2021/03/10 00:57:48;;;;;;;6.57;5.60;;;;;;;1.04;47.10;101467.84;697730;28;22458;-60
2021/03/10 00:58:09;;;;;;;7.03;5.45;;;;;;;1.03;47.07;101460.81;696012;28;42216;-60
2021/03/10 00:58:31;;;;;;;7.28;5.28;;;;;;;1.00;47.25;101461.84;696617;28;23564;-58
2021/03/10 00:58:52;;;;;;;6.97;5.60;;;;;;;0.99;47.15;101461.97;695799;28;39406;-59
2021/03/10 00:59:13;;;;;;;7.55;5.70;;;;;;;0.99;47.21;101460.16;697137;28;17319;-58
2021/03/10 00:59:34;;;;;;;6.38;5.47;;;;;;;0.99;47.09;101465.47;696838;28;9902;-60
2021/03/10 00:59:56;;;;;;;7.55;5.55;;;;;;;0.99;47.25;101457.50;697122;28;14878;-59
2021/03/10 01:00:18;;;;;;;7.75;5.55;;;;;;;0.96;47.11;101454.19;697007;28;45260;-58
2021/03/10 01:00:39;;;;;;;7.82;5.80;;;;;;;0.96;47.15;101465.66;695755;28;42258;-58
2021/03/10 01:01:00;;;;;;;8.60;6.05;;;;;;;0.95;47.02;101455.13;695722;28;23459;-59
2021/03/10 01:01:22;;;;;;;6.45;5.45;;;;;;;0.95;47.12;101460.44;696536;28;23453;-59
2021/03/10 01:01:43;;;;;;;6.97;5.35;;;;;;;0.94;47.19;101456.06;695867;28;46359;-58
2021/03/10 01:02:04;;;;;;;7.78;5.53;;;;;;;0.93;47.07;101451.72;696894;28;22267;-59
2021/03/10 01:02:25;;;;;;;6.25;5.30;;;;;;;0.94;47.35;101456.94;696989;28;22268;-59
2021/03/10 01:02:47;;;;;;;8.30;5.60;;;;;;;0.93;47.29;101457.03;697719;28;896;-57
2021/03/10 01:03:08;;;;;;;8.98;5.45;;;;;;;0.92;47.29;101447.34;696996;28;46421;-58
2021/03/10 01:03:31;;;;;;;8.07;5.53;;;;;;;0.92;47.49;101460.63;697490;28;895;-59
2021/03/10 01:03:52;;;;;;;9.18;5.60;;;;;;;0.90;47.18;101448.28;696654;28;21464;-58
2021/03/10 01:04:13;;;;;;;8.38;5.60;;;;;;;0.92;47.34;101452.66;696717;28;17826;-57
2021/03/10 01:04:35;;;;;;;8.40;5.53;;;;;;;0.90;47.17;101444.78;697012;28;23499;-58
2021/03/10 01:04:56;;;;;;;8.15;5.53;;;;;;;0.89;47.31;101451.91;695605;28;46399;-58
2021/03/10 01:05:17;;;;;;;8.30;5.57;;;;;;;0.89;47.30;101453.69;694649;28;23429;-60
2021/03/10 01:05:38;;;;;;;8.25;5.90;;;;;;;0.88;47.30;101449.34;695043;28;22192;-58
2021/03/10 01:06:00;;;;;;;7.93;5.68;;;;;;;0.86;47.19;101448.56;695285;28;21540;-58
2021/03/10 01:06:25;;;;;;;6.13;5.53;;;;;;;0.87;47.38;101447.63;695980;28;39116;-57
2021/03/10 01:06:46;;;;;;;6.53;5.22;;;;;;;0.87;47.18;101452.94;695876;28;37942;-58
2021/03/10 01:07:07;;;;;;;7.05;5.25;;;;;;;0.86;47.19;101448.56;696651;28;19301;-59
2021/03/10 01:07:29;;;;;;;7.88;5.40;;;;;;;0.86;47.47;101443.25;696595;28;21516;-60
2021/03/10 01:07:50;;;;;;;7.80;5.43;;;;;;;0.86;47.30;101444.13;695673;28;44392;-59
2021/03/10 01:08:11;;;;;;;7.93;5.57;;;;;;;0.86;47.20;101443.25;696831;28;22894;-59
2021/03/10 01:08:35;;;;;;;7.00;5.65;;;;;;;0.84;47.43;101448.66;695669;28;21308;-59
2021/03/10 01:08:57;;;;;;;6.25;5.20;;;;;;;0.85;47.27;101444.22;692102;28;115573;-58
2021/03/10 01:09:18;;;;;;;8.68;5.30;;;;;;;0.84;47.28;101446.00;695250;28;22432;-58
2021/03/10 01:09:39;;;;;;;9.38;5.97;;;;;;;0.82;47.19;101447.91;694045;28;44477;-59
2021/03/10 01:10:01;;;;;;;7.18;5.45;;;;;;;0.84;47.32;101442.50;695387;28;22444;-59
2021/03/10 01:10:22;;;;;;;5.72;5.13;;;;;;;0.83;47.23;101448.75;695593;28;23493;-57
2021/03/10 01:10:45;;;;;;;6.13;5.53;;;;;;;0.79;47.15;101441.94;695486;28;22400;-60
2021/03/10 01:11:06;;;;;;;6.35;5.47;;;;;;;0.82;46.89;101441.75;693593;28;92404;-60
2021/03/10 01:11:28;;;;;;;7.15;5.28;;;;;;;0.81;47.24;101453.34;695572;28;23360;-60
2021/03/10 01:11:49;;;;;;;8.85;5.72;;;;;;;0.79;47.27;101442.78;695496;28;23412;-59
2021/03/10 01:12:10;;;;;;;7.45;5.25;;;;;;;0.79;47.27;101447.25;695644;28;15505;-58
2021/03/10 01:12:31;;;;;;;6.20;5.05;;;;;;;0.77;47.46;101443.81;694674;28;47208;-60
2021/03/10 01:12:52;;;;;;;5.70;4.75;;;;;;;0.77;47.37;101449.16;695693;28;15424;-57
2021/03/10 01:13:14;;;;;;;7.57;5.03;;;;;;;0.77;47.43;101443.81;695857;28;12575;-59
2021/03/10 01:13:35;;;;;;;6.88;5.70;;;;;;;0.78;47.34;101434.91;695446;28;13143;-59
2021/03/10 01:13:56;;;;;;;8.32;5.93;;;;;;;0.77;47.27;101443.81;695381;28;21559;-58
2021/03/10 01:14:17;;;;;;;10.05;5.90;;;;;;;0.76;47.36;101444.81;695885;28;36723;-59
2021/03/10 01:14:38;;;;;;;7.35;5.70;;;;;;;0.78;47.27;101442.88;695044;28;22486;-58
2021/03/10 01:15:00;;;;;;;7.72;5.50;;;;;;;0.78;47.55;101449.03;694559;28;22364;-60
2021/03/10 01:15:22;;;;;;;8.10;5.47;;;;;;;0.78;47.57;101445.53;694605;28;65546;-58
2021/03/10 01:15:43;;;;;;;7.32;5.53;;;;;;;0.75;47.42;101440.41;696097;28;23294;-57
2021/03/10 01:16:04;;;;;;;8.85;5.50;;;;;;;0.77;47.62;101446.47;696666;28;22436;-58
2021/03/10 01:16:25;;;;;;;7.30;5.35;;;;;;;0.75;47.75;101451.06;695965;28;23499;-59
2021/03/10 01:16:46;;;;;;;8.07;5.45;;;;;;;0.73;47.93;101442.34;698526;28;22390;-59
2021/03/10 01:17:08;;;;;;;7.88;5.60;;;;;;;0.69;47.71;101439.84;696825;28;22449;-59
2021/03/10 01:17:29;;;;;;;6.53;5.50;;;;;;;0.73;47.78;101453.81;696098;28;46345;-59
2021/03/10 01:17:50;;;;;;;6.22;5.38;;;;;;;0.72;47.76;101446.78;696340;28;21340;-57
2021/03/10 01:18:11;;;;;;;6.53;5.25;;;;;;;0.70;47.79;101438.88;696861;28;22407;-59
2021/03/10 01:18:33;;;;;;;6.85;5.25;;;;;;;0.70;47.89;101440.72;696696;28;22435;-59
2021/03/10 01:18:54;;;;;;;6.78;5.15;;;;;;;0.70;47.74;101449.53;696414;28;23422;-58
2021/03/10 01:19:15;;;;;;;7.70;5.10;;;;;;;0.70;47.97;101441.56;695186;28;47199;-59
2021/03/10 01:19:36;;;;;;;6.72;4.95;;;;;;;0.70;48.06;101441.56;696384;28;23524;-57
2021/03/10 01:19:58;;;;;;;7.22;4.93;;;;;;;0.70;47.98;101443.38;696576;28;23408;-59
2021/03/10 01:20:20;;;;;;;5.82;4.90;;;;;;;0.70;48.19;101448.69;696316;28;23451;-58
2021/03/10 01:20:41;;;;;;;6.13;5.25;;;;;;;0.70;48.21;101444.22;695547;28;69417;-60
2021/03/10 01:21:02;;;;;;;5.85;5.20;;;;;;;0.65;48.24;101438.34;696863;28;21513;-59
2021/03/10 01:21:24;;;;;;;6.70;5.13;;;;;;;0.67;48.02;101441.75;696062;28;23506;-59
2021/03/10 01:21:45;;;;;;;7.68;5.50;;;;;;;0.66;48.06;101447.19;696289;28;46312;-59
2021/03/10 01:22:06;;;;;;;7.57;5.70;;;;;;;0.66;48.11;101439.22;696507;28;22376;-58
2021/03/10 01:22:27;;;;;;;7.57;5.40;;;;;;;0.64;48.02;101435.78;696437;28;23491;-59
2021/03/10 01:22:48;;;;;;;6.65;5.38;;;;;;;0.65;48.00;101445.47;697394;28;946;-59
2021/03/10 01:23:09;;;;;;;8.20;5.57;;;;;;;0.65;48.02;101445.47;697404;28;20823;-59
2021/03/10 01:23:31;;;;;;;8.68;5.70;;;;;;;0.64;48.16;101447.28;696249;28;23425;-60
2021/03/10 01:23:52;;;;;;;8.15;5.38;;;;;;;0.64;47.87;101447.28;695744;28;46412;-59
2021/03/10 01:24:13;;;;;;;7.20;5.78;;;;;;;0.64;48.08;101441.97;697708;28;17212;-59
2021/03/10 01:24:34;;;;;;;7.75;5.90;;;;;;;0.64;47.83;101449.06;696693;28;21559;-58
2021/03/10 01:24:56;;;;;;;6.85;5.28;;;;;;;0.64;48.16;101447.28;696596;28;22398;-59
2021/03/10 01:25:18;;;;;;;6.90;5.45;;;;;;;0.64;48.10;101449.06;694650;28;46554;-57
2021/03/10 01:25:39;;;;;;;7.20;5.30;;;;;;;0.62;48.04;101449.16;694227;28;46315;-59
2021/03/10 01:26:01;;;;;;;6.80;5.47;;;;;;;0.62;48.25;101446.50;694877;28;21529;-59
2021/03/10 01:26:22;;;;;;;7.68;5.40;;;;;;;0.62;48.33;101448.31;693737;28;44411;-59
2021/03/10 01:26:43;;;;;;;7.82;5.43;;;;;;;0.64;48.08;101446.41;695532;28;22384;-59
2021/03/10 01:27:05;;;;;;;10.13;5.55;;;;;;;0.62;48.40;101446.50;695546;28;21549;-59
2021/03/10 01:27:26;;;;;;;7.40;5.20;;;;;;;0.63;48.08;101444.72;694662;28;46377;-59
2021/03/10 01:27:47;;;;;;;6.70;5.40;;;;;;;0.64;48.32;101451.72;695449;28;21555;-60
2021/03/10 01:28:09;;;;;;;7.00;5.50;;;;;;;0.64;48.02;101451.72;695518;28;22426;-60
2021/03/10 01:28:30;;;;;;;7.35;5.50;;;;;;;0.62;48.00;101445.66;692525;28;45441;-59
2021/03/10 01:28:51;;;;;;;7.70;5.80;;;;;;;0.62;48.06;101449.16;694840;28;23311;-59
2021/03/10 01:29:12;;;;;;;7.53;5.57;;;;;;;0.64;48.01;101449.06;695793;28;23439;-59
2021/03/10 01:29:34;;;;;;;9.07;5.63;;;;;;;0.63;48.23;101450.88;694482;28;23495;-59
2021/03/10 01:29:55;;;;;;;6.50;5.55;;;;;;;0.62;47.90;101451.81;692532;28;46436;-59
2021/03/10 01:30:20;;;;;;;6.65;5.40;;;;;;;0.63;48.10;101447.38;693831;28;3257;-59
2021/03/10 01:30:41;;;;;;;7.70;5.15;;;;;;;0.63;48.21;101450.03;693288;28;91619;-59
2021/03/10 01:31:02;;;;;;;7.70;5.25;;;;;;;0.62;48.06;101446.50;695667;28;15413;-60
2021/03/10 01:31:23;;;;;;;8.82;5.55;;;;;;;0.62;48.16;101449.16;694231;28;46387;-59
2021/03/10 01:31:44;;;;;;;8.82;5.40;;;;;;;0.61;48.13;101444.81;695689;28;22364;-60
2021/03/10 01:32:06;;;;;;;7.85;5.35;;;;;;;0.63;48.07;101444.72;694822;28;20103;-59
2021/03/10 01:32:28;;;;;;;6.78;5.57;;;;;;;0.62;48.10;101446.50;694845;28;22375;-59
2021/03/10 01:32:50;;;;;;;8.20;5.50;;;;;;;0.62;48.11;101453.63;694090;28;45301;-60
2021/03/10 01:33:11;;;;;;;7.53;5.10;;;;;;;0.62;48.00;101451.81;694075;28;46308;-57
2021/03/10 01:33:32;;;;;;;6.65;5.28;;;;;;;0.64;48.22;101449.06;694484;28;23378;-60
2021/03/10 01:33:53;;;;;;;5.97;5.38;;;;;;;0.62;48.04;101449.16;695562;28;23420;-58
2021/03/10 01:34:14;;;;;;;7.15;5.32;;;;;;;0.64;48.25;101457.03;695781;28;20839;-59
2021/03/10 01:34:36;;;;;;;5.88;4.97;;;;;;;0.64;48.19;101451.72;694736;28;39284;-58
2021/03/10 01:34:57;;;;;;;6.07;5.05;;;;;;;0.63;48.22;101445.56;694542;28;18885;-60
2021/03/10 01:35:18;;;;;;;6.50;5.07;;;;;;;0.64;48.19;101452.59;695504;28;17816;-60
2021/03/10 01:35:39;;;;;;;5.80;5.07;;;;;;;0.63;48.09;101452.69;696516;28;19375;-59
2021/03/10 01:36:01;;;;;;;6.22;5.60;;;;;;;0.62;48.31;101454.47;695662;28;38600;-59
2021/03/10 01:36:22;;;;;;;7.57;5.72;;;;;;;0.62;48.19;101446.50;698606;28;23460;-59
2021/03/10 01:36:43;;;;;;;7.28;5.43;;;;;;;0.63;48.14;101447.38;699269;28;21563;-59
2021/03/10 01:37:04;;;;;;;6.25;5.53;;;;;;;0.63;48.14;101448.22;699078;28;22404;-59
2021/03/10 01:37:25;;;;;;;7.43;5.38;;;;;;;0.62;48.14;101448.31;698666;28;46338;-59
2021/03/10 01:37:46;;;;;;;6.97;5.10;;;;;;;0.60;48.37;101448.41;699147;28;23419;-59
2021/03/10 01:38:07;;;;;;;9.25;5.25;;;;;;;0.59;48.59;101449.34;700095;28;14096;-58
2021/03/10 01:38:28;;;;;;;7.32;5.40;;;;;;;0.58;48.51;101445.00;697477;28;1393;-59
2021/03/10 01:38:50;;;;;;;7.45;5.60;;;;;;;0.59;48.52;101452.00;697035;28;17889;-57
2021/03/10 01:39:11;;;;;;;9.48;5.20;;;;;;;0.56;48.38;101449.53;697642;28;969;-60
2021/03/10 01:39:32;;;;;;;7.43;5.25;;;;;;;0.58;48.49;101454.75;695918;28;46322;-60
2021/03/10 01:39:53;;;;;;;6.65;5.30;;;;;;;0.56;48.58;101454.00;697414;28;10068;-59
2021/03/10 01:40:16;;;;;;;7.07;5.25;;;;;;;0.56;48.78;101443.38;696731;28;15998;-59
2021/03/10 01:40:37;;;;;;;6.03;5.25;;;;;;;0.54;48.70;101454.94;695773;28;40533;-59
2021/03/10 01:40:58;;;;;;;7.45;5.00;;;;;;;0.53;48.62;101449.72;696125;28;44346;-60
2021/03/10 01:41:20;;;;;;;7.32;5.07;;;;;;;0.52;48.93;101456.00;696599;28;20767;-60
2021/03/10 01:41:41;;;;;;;6.80;5.18;;;;;;;0.51;48.98;101451.63;697362;28;16094;-60
2021/03/10 01:42:03;;;;;;;8.60;5.68;;;;;;;0.51;48.75;101456.94;696725;28;23416;-60